• Join FlightAware (Why Join?)
  • Login
  • US Flag 
12:27PM EDT


 

Airport Tracker/Info


-or-


 

Live Flight TrackerFlight Track Log ✈ FLG3729 ✈ 20-May-2013 ✈ KALB - KDTW

Flight Track Log - Related Links

Times and Time Zones

All times are in EDT time to prevent confusion due to time zone crossing. See the FLG3729 flight status page for this flight to view local times or setup timezone preferences in your user account.

Time Position Orientation Groundspeed Altitude Reporting Facility
EDT Latitude Longitude Course Direction KTS MPH feet Rate Location/Type
05:52AM 42.7236 -73.8081 283° West 138 159 1,300  Level Boston Center
05:53AM 42.6964 -73.8214 200° South 174 200 2,100 1,740 Climbing Boston Center
05:54AM 42.7311 -73.8761 311° West 219 252 4,300 1,980 Climbing Boston Center
05:55AM 42.7681 -73.9136 323° Northwest 246 283 5,600 2,160 Climbing Boston Center
05:56AM 42.8297 -74.3078 281° West  Level FlightAware Approximate
05:56AM 42.8194 -73.9772 318° Northwest 251 289 8,100  Level Boston Center
05:57AM 42.8507 -74.4374 283° West  Level FlightAware Approximate
05:57AM 42.8767 -74.0436 320° Northwest 258 297 10,600  Level Boston Center
05:58AM 42.9464 -74.1306 318° Northwest 287 330 11,800 1,200 Climbing Boston Center
05:59AM 43.0078 -74.2119 316° Northwest 320 368 13,000 1,380 Climbing Boston Center
06:00AM 43.0494 -74.3408 294° West 338 389 14,600 1,500 Climbing Boston Center
06:01AM 43.0578 -74.4661 275° West 352 405 16,000 1,500 Climbing Boston Center
06:02AM 43.0675 -74.6172 275° West 363 418 17,600 1,380 Climbing Boston Center
06:03AM 43.0753 -74.7397 275° West 370 426 18,800 1,200 Climbing Boston Center
06:04AM 43.0828 -74.8792 274° West 370 426 20,000 1,140 Climbing Boston Center
06:05AM 43.0925 -75.0161 276° West 370 426 21,100 1,020 Climbing Boston Center
06:06AM 43.1017 -75.1586 275° West 370 426 22,100 960 Climbing Boston Center
06:07AM 43.1106 -75.3014 275° West 370 426 23,100 900 Climbing Boston Center
06:08AM 43.1194 -75.4442 275° West 375 432 24,000 420 Climbing Boston Center
06:09AM 43.1281 -75.5897 275° West 380 437 24,000  Level Boston Center
06:10AM 43.1378 -75.7608 275° West 393 452 24,000  Level Boston Center
06:11AM 43.1475 -75.9208 275° West 410 472 24,000  Level Boston Center
06:12AM 43.1603 -76.1853 274° West 418 481 24,000  Level Cleveland Center
06:13AM 43.1492 -76.3372 264° West 407 468 24,000  Level Cleveland Center
06:14AM 43.1381 -76.4858 264° West 407 468 24,000  Level Cleveland Center
06:15AM 43.1264 -76.6347 264° West 407 468 24,000  Level Cleveland Center
06:16AM 43.1106 -76.7836 262° West 407 468 24,000  Level Cleveland Center
06:17AM 43.0967 -76.9322 263° West 407 468 24,000  Level Cleveland Center
06:18AM 43.0825 -77.0811 263° West 407 468 24,000  Level Cleveland Center
06:19AM 43.0681 -77.2297 262° West 407 468 24,000  Level Cleveland Center
06:20AM 43.0578 -77.3781 265° West 402 463 24,000  Level Cleveland Center
06:21AM 43.0411 -77.5294 261° West 402 463 24,000  Level Cleveland Center
06:22AM 43.0281 -77.6778 263° West 402 463 24,000  Level Cleveland Center
06:23AM 43.0131 -77.8261 262° West 407 468 24,000  Level Cleveland Center
06:24AM 42.9981 -77.9944 263° West 407 468 24,000  Level Cleveland Center
06:25AM 42.9825 -78.1425 262° West 407 468 24,000  Level Cleveland Center
06:26AM 42.9667 -78.2850 261° West 402 463 24,000  Level Cleveland Center
06:27AM 42.9528 -78.4303 263° West 397 457 24,000  Level Cleveland Center
06:28AM 42.9367 -78.5725 261° West 392 451 24,000  Level Cleveland Center
06:29AM 42.9183 -78.7206 260° West 392 451 24,000  Level Cleveland Center
06:30AM 42.8997 -78.8628 260° West 392 451 24,000  Level Cleveland Center
06:31AM 42.8789 -79.0081 259° West 392 451 24,000  Level Cleveland Center
06:32AM 42.8578 -79.1500 259° West 392 451 24,000  Level Cleveland Center
06:33AM 42.8386 -79.2950 260° West 392 451 24,000  Level Cleveland Center
06:34AM 42.8172 -79.4397 259° West 392 451 24,000  Level Cleveland Center
06:35AM 42.7978 -79.5844 260° West 392 451 24,000  Level Cleveland Center
06:36AM 42.7717 -79.7292 256° West 392 451 24,000  Level Cleveland Center
06:37AM 42.7539 -79.8736 261° West 392 451 24,000  Level Cleveland Center
06:38AM 42.7444 -80.0064 265° West 392 451 24,000  Level Cleveland Center
06:39AM 42.7386 -80.1564 267° West 392 451 24,000  Level Cleveland Center
06:40AM 42.7328 -80.3033 267° West 397 457 24,000  Level Cleveland Center
06:41AM 42.7247 -80.4672 266° West 397 457 24,000  Level Cleveland Center
06:42AM 42.7208 -80.6142 268° West 402 463 24,000  Level Cleveland Center
06:43AM 42.7122 -80.7642 266° West 402 463 24,000  Level Cleveland Center
06:44AM 42.7056 -80.9139 267° West 402 463 24,000  Level Cleveland Center
06:45AM 42.6864 -81.0633 260° West 402 463 24,000  Level Cleveland Center
06:46AM 42.6689 -81.2100 261° West 401 461 24,000  Level Cleveland Center
06:47AM 42.6533 -81.3622 262° West 401 461 24,000  Level Cleveland Center
06:48AM 42.6358 -81.5033 260° West 398 458 24,000 -360 Level Cleveland Center
06:49AM 42.6197 -81.6553 262° West 406 467 23,300 -1,200 Descending Cleveland Center
06:50AM 42.5997 -81.7961 259° West 421 484 21,600 -1,920 Descending Cleveland Center
06:51AM 42.5811 -81.9564 261° West 431 496 19,500 -2,040 Descending Cleveland Center
06:52AM 42.5625 -82.1083 261° West 426 490 17,600 -2,040 Descending Cleveland Center
06:53AM 42.5439 -82.2572 260° West 421 484 15,500 -2,100 Descending Cleveland Center
06:54AM 42.5250 -82.4058 260° West 411 473 13,500 -2,160 Descending Cleveland Center
06:55AM 42.5197 -82.4678 263° West 383 441 12,700 -1,500 Descending Cleveland Center
06:55AM 42.5061 -82.5433 256° West 397 457 12,000 -780 Descending Cleveland Center
06:56AM 42.4686 -82.6547 245° Southwest 365 420 11,400 -1,020 Descending Cleveland Center
06:57AM 42.4233 -82.7433 235° Southwest 314 361 10,000 -1,500 Descending Cleveland Center
06:58AM 42.3881 -82.8322 242° Southwest 294 338 8,500 -1,680 Descending Cleveland Center
06:59AM 42.3956 -82.8747 283° West 273 314 7,900 -1,500 Descending Cleveland Center
06:59AM 42.3967 -82.9308 272° West 260 299 7,000 -1,500 Descending Cleveland Center
07:00AM 42.4000 -82.9733 276° West 263 303 6,400 -1,020 Descending Cleveland Center
07:00AM 42.3944 -83.0292 262° West 260 299 6,000 -720 Descending Cleveland Center
07:01AM 42.3936 -83.0686 268° West 253 291 5,700 -1,020 Descending Cleveland Center
07:01AM 42.3864 -83.1217 260° West 255 293 5,000 -840 Descending Cleveland Center
07:02AM 42.3728 -83.1689 249° West 251 289 4,800 -720 Descending Cleveland Center
07:02AM 42.3553 -83.2019 234° Southwest 250 288 4,300 -1,140 Descending Cleveland Center
07:03AM 42.3356 -83.2433 237° Southwest 213 245 3,700 -1,440 Descending Cleveland Center